createdAt,value
2024-02-04T00:01:29.248Z,74.30
2024-02-04T00:03:58.195Z,74.50
2024-02-04T00:06:27.395Z,74.60
2024-02-04T00:08:55.888Z,74.70
2024-02-04T00:11:25.789Z,74.70
2024-02-04T00:13:54.228Z,74.60
2024-02-04T00:16:22.713Z,74.60
2024-02-04T00:18:51.202Z,74.70
2024-02-04T00:21:19.871Z,74.60
2024-02-04T00:23:48.393Z,74.70
2024-02-04T00:26:15.923Z,74.70
2024-02-04T00:28:45.821Z,74.80
2024-02-04T00:31:14.374Z,75.00
2024-02-04T00:33:42.988Z,75.00
2024-02-04T00:36:11.580Z,75.20
2024-02-04T00:38:40.011Z,75.30
2024-02-04T00:41:08.536Z,75.40
2024-02-04T00:43:38.056Z,75.30
2024-02-04T00:46:09.067Z,75.20
2024-02-04T00:48:37.769Z,75.00
2024-02-04T00:51:06.703Z,75.00
2024-02-04T00:53:35.818Z,75.00
2024-02-04T00:56:05.820Z,75.10
2024-02-04T00:58:34.325Z,75.40
2024-02-04T01:01:02.835Z,75.70
2024-02-04T01:03:33.682Z,76.00
2024-02-04T01:06:02.552Z,76.20
2024-02-04T01:08:31.090Z,76.50
2024-02-04T01:10:59.581Z,76.80
2024-02-04T01:13:28.078Z,76.90
2024-02-04T01:15:56.528Z,77.00
2024-02-04T01:18:24.989Z,77.20
2024-02-04T01:20:54.819Z,77.30
2024-02-04T01:23:23.331Z,77.10
2024-02-04T01:25:51.869Z,77.00
2024-02-04T01:28:20.381Z,77.00
2024-02-04T01:30:49.723Z,77.00
2024-02-04T01:33:18.220Z,76.90
2024-02-04T01:35:46.793Z,77.70
2024-02-04T01:38:16.658Z,77.10
2024-02-04T01:40:47.414Z,77.30
2024-02-04T01:43:16.726Z,77.50
2024-02-04T01:45:45.249Z,77.70
2024-02-04T01:48:16.176Z,77.90
2024-02-04T01:50:44.878Z,78.30
2024-02-04T01:53:14.026Z,78.60
2024-02-04T01:55:44.447Z,78.80
2024-02-04T01:58:12.959Z,79.10
2024-02-04T02:00:41.423Z,79.20
2024-02-04T02:07:22.670Z,79.90
2024-02-04T02:09:51.350Z,80.40
2024-02-04T02:12:26.836Z,80.70
2024-02-04T02:15:02.026Z,80.90
2024-02-04T02:17:40.348Z,80.90
2024-02-04T02:20:14.419Z,81.30
2024-02-04T02:22:50.735Z,81.50
2024-02-04T02:25:22.237Z,81.80
2024-02-04T02:27:51.878Z,82.20
2024-02-04T02:30:21.138Z,82.40
2024-02-04T02:32:52.051Z,82.60
2024-02-04T02:35:21.425Z,82.70
2024-02-04T02:37:59.021Z,82.90
2024-02-04T02:40:35.044Z,83.10
2024-02-04T02:43:05.304Z,83.20
2024-02-04T02:45:33.996Z,83.40
2024-02-04T02:48:03.646Z,83.30
2024-02-04T02:50:32.105Z,83.30
2024-02-04T02:53:00.673Z,83.30
2024-02-04T02:55:30.341Z,83.30
2024-02-04T02:57:58.921Z,83.30
2024-02-04T03:00:27.579Z,83.40
2024-02-04T03:02:56.596Z,83.50
2024-02-04T03:05:25.018Z,83.80
2024-02-04T03:07:53.464Z,84.20
2024-02-04T03:10:22.028Z,84.40
2024-02-04T03:12:51.819Z,84.80
2024-02-04T03:15:20.176Z,85.30
2024-02-04T03:17:48.836Z,85.90
2024-02-04T03:20:17.551Z,86.40
2024-02-04T03:22:47.334Z,87.10
2024-02-04T03:25:15.980Z,87.50
2024-02-04T03:27:45.600Z,88.20
2024-02-04T03:30:16.236Z,88.90
2024-02-04T03:32:44.754Z,89.60
2024-02-04T03:35:13.576Z,90.00
2024-02-04T03:37:42.114Z,90.40
2024-02-04T03:40:11.436Z,90.70
2024-02-04T03:42:41.822Z,91.00
2024-02-04T03:45:11.195Z,91.10
2024-02-04T03:47:40.900Z,91.10
2024-02-04T03:50:09.889Z,91.10
2024-02-04T03:52:38.286Z,91.20
2024-02-04T03:55:07.560Z,91.30
2024-02-04T03:57:36.179Z,91.60
2024-02-04T04:00:05.540Z,91.90
2024-02-04T04:02:43.118Z,92.10
2024-02-04T04:05:14.488Z,92.30
2024-02-04T04:07:43.471Z,92.70
2024-02-04T04:10:12.052Z,93.10
2024-02-04T04:12:40.693Z,93.50
2024-02-04T04:15:09.651Z,93.80
2024-02-04T04:17:38.048Z,94.20
2024-02-04T04:20:09.985Z,94.50
2024-02-04T04:22:41.963Z,94.70
2024-02-04T04:25:11.668Z,94.70
2024-02-04T04:27:40.126Z,94.70
2024-02-04T04:30:09.994Z,94.70
2024-02-04T04:32:38.494Z,94.70
2024-02-04T04:35:08.839Z,94.70
2024-02-04T04:37:37.217Z,94.80
2024-02-04T04:40:07.003Z,94.90
2024-02-04T04:42:35.453Z,95.00
2024-02-04T04:45:04.025Z,95.10
2024-02-04T04:47:32.412Z,95.20
2024-02-04T04:50:00.986Z,95.10
2024-02-04T04:52:30.763Z,94.90
2024-02-04T04:54:59.191Z,94.90
2024-02-04T04:57:27.630Z,94.90
2024-02-04T04:59:56.148Z,94.90
2024-02-04T05:02:24.619Z,95.00
2024-02-04T05:04:53.113Z,94.90
2024-02-04T05:07:22.942Z,94.90
2024-02-04T05:09:52.949Z,94.80
2024-02-04T05:12:21.356Z,94.80
2024-02-04T05:14:49.754Z,94.70
2024-02-04T05:17:18.133Z,94.60
2024-02-04T05:19:46.683Z,94.60
2024-02-04T05:22:15.217Z,94.80
2024-02-04T05:24:43.855Z,94.90
2024-02-04T05:27:13.631Z,95.10
2024-02-04T05:29:42.084Z,95.30
2024-02-04T05:32:10.535Z,95.50
2024-02-04T05:34:40.055Z,95.60
2024-02-04T05:37:08.586Z,95.70
2024-02-04T05:39:37.245Z,95.70
2024-02-04T05:42:06.125Z,95.90
2024-02-04T05:44:35.903Z,96.20
2024-02-04T05:47:04.392Z,96.40
2024-02-04T05:49:33.043Z,96.60
2024-02-04T05:52:01.528Z,96.80
2024-02-04T05:54:30.021Z,96.90
2024-02-04T05:56:58.340Z,97.10
2024-02-04T05:59:26.806Z,97.20
2024-02-04T06:01:56.579Z,97.40
2024-02-04T06:04:25.133Z,97.50
2024-02-04T06:06:53.841Z,97.60
2024-02-04T06:09:22.425Z,97.70
2024-02-04T06:11:50.767Z,97.90
2024-02-04T06:14:19.270Z,98.20
2024-02-04T06:16:47.639Z,98.50
2024-02-04T06:19:17.440Z,98.90
2024-02-04T06:21:45.948Z,99.20
2024-02-04T06:24:14.685Z,99.70
2024-02-04T06:26:43.360Z,99.90
2024-02-04T06:29:12.446Z,99.90
2024-02-04T06:31:40.893Z,99.90
2024-02-04T06:34:09.470Z,99.90
2024-02-04T06:36:39.428Z,99.90
2024-02-04T06:39:09.651Z,99.90
2024-02-04T06:41:38.261Z,99.90
2024-02-04T06:44:06.976Z,99.90
2024-02-04T06:46:35.545Z,99.90
2024-02-04T06:49:04.397Z,99.90
2024-02-04T06:51:32.984Z,99.90
2024-02-04T06:54:03.144Z,99.90
2024-02-04T06:56:31.490Z,99.90
2024-02-04T06:58:59.832Z,99.90
2024-02-04T07:01:28.300Z,99.90
2024-02-04T07:03:57.013Z,99.90
2024-02-04T07:06:25.564Z,99.90
2024-02-04T07:08:54.033Z,99.90
2024-02-04T07:11:23.674Z,99.90
2024-02-04T07:13:52.836Z,99.90
2024-02-04T07:16:23.448Z,99.90
2024-02-04T07:18:51.978Z,99.90
2024-02-04T07:21:20.481Z,99.90
2024-02-04T07:23:48.902Z,99.90
2024-02-04T07:26:17.337Z,99.90
2024-02-04T07:28:47.134Z,99.90
2024-02-04T07:31:15.685Z,99.90
2024-02-04T07:33:44.233Z,99.90
2024-02-04T07:36:13.684Z,99.90
2024-02-04T07:38:42.092Z,99.90
2024-02-04T07:41:10.494Z,99.90
2024-02-04T07:43:39.000Z,99.90
2024-02-04T07:46:10.566Z,99.90
2024-02-04T07:48:39.276Z,99.90
2024-02-04T07:51:09.189Z,98.20
2024-02-04T07:53:38.522Z,95.60
2024-02-04T07:56:07.955Z,93.50
2024-02-04T07:58:36.463Z,91.90
2024-02-04T08:01:05.245Z,90.90
2024-02-04T08:03:35.152Z,90.30
2024-02-04T08:06:04.481Z,89.50
2024-02-04T08:08:33.238Z,89.30
2024-02-04T08:11:02.179Z,89.30
2024-02-04T08:13:30.853Z,88.40
2024-02-04T08:15:59.501Z,88.80
2024-02-04T08:18:27.979Z,89.60
2024-02-04T08:20:57.873Z,90.10
2024-02-04T08:23:26.279Z,90.20
2024-02-04T08:25:54.729Z,90.20
2024-02-04T08:28:25.002Z,90.70
2024-02-04T08:30:53.646Z,93.70
2024-02-04T08:33:22.425Z,96.40
2024-02-04T08:35:51.177Z,99.90
2024-02-04T08:38:20.939Z,99.90
2024-02-04T08:40:49.518Z,99.90
2024-02-04T08:43:17.979Z,99.90
2024-02-04T08:45:46.508Z,98.20
2024-02-04T08:48:15.131Z,94.10
2024-02-04T08:50:43.625Z,91.40
2024-02-04T08:53:11.999Z,89.90
2024-02-04T08:55:41.706Z,87.30
2024-02-04T08:58:10.186Z,85.00
2024-02-04T09:00:38.806Z,85.50
2024-02-04T09:03:07.323Z,83.70
2024-02-04T09:05:35.748Z,82.10
2024-02-04T09:08:04.459Z,78.70
2024-02-04T09:10:32.863Z,76.20
2024-02-04T09:13:02.748Z,76.50
2024-02-04T09:15:31.286Z,77.10
2024-02-04T09:17:59.927Z,76.90
2024-02-04T09:20:28.589Z,78.70
2024-02-04T09:22:57.132Z,74.70
2024-02-04T09:25:27.125Z,71.20
2024-02-04T09:27:55.899Z,66.70
2024-02-04T09:30:25.853Z,62.90
2024-02-04T09:32:54.879Z,60.60
2024-02-04T09:35:23.656Z,58.20
2024-02-04T09:37:52.365Z,56.10
2024-02-04T09:40:21.173Z,54.60
2024-02-04T09:42:49.891Z,53.40
2024-02-04T09:45:18.498Z,52.60
2024-02-04T09:47:49.634Z,51.70
2024-02-04T09:50:20.945Z,51.50
2024-02-04T09:52:52.911Z,51.00
2024-02-04T09:55:23.693Z,50.90
2024-02-04T09:57:52.291Z,50.00
2024-02-04T10:00:22.328Z,50.20
2024-02-04T10:02:52.171Z,50.00
2024-02-04T10:05:20.777Z,49.30
2024-02-04T10:07:49.518Z,48.70
2024-02-04T10:10:18.222Z,48.40
2024-02-04T10:12:46.668Z,48.20
2024-02-04T10:15:16.520Z,47.80
2024-02-04T10:17:47.570Z,47.80
2024-02-04T10:20:20.568Z,47.30
2024-02-04T10:22:50.949Z,46.80
2024-02-04T10:25:23.012Z,47.20
2024-02-04T10:27:51.572Z,46.70
2024-02-04T10:30:22.274Z,46.80
2024-02-04T10:32:53.287Z,47.20
2024-02-04T10:35:25.429Z,47.60
2024-02-04T10:37:54.456Z,47.80
2024-02-04T10:40:23.002Z,48.10
2024-02-04T10:42:52.943Z,48.30
2024-02-04T10:45:24.097Z,49.20
2024-02-04T10:47:59.197Z,50.70
2024-02-04T10:50:31.426Z,51.60
2024-02-04T10:53:05.269Z,51.40
2024-02-04T10:55:34.895Z,51.00
2024-02-04T10:58:04.619Z,50.90
2024-02-04T11:00:33.479Z,50.50
2024-02-04T11:03:02.787Z,49.70
2024-02-04T11:05:36.181Z,49.40
2024-02-04T11:08:06.122Z,48.10
2024-02-04T11:10:35.313Z,47.70
2024-02-04T11:13:06.244Z,47.50
2024-02-04T11:15:39.916Z,46.70
2024-02-04T11:18:44.962Z,46.30
2024-02-04T11:21:29.257Z,46.10
2024-02-04T11:24:12.160Z,44.60
2024-02-04T11:26:42.211Z,43.60
2024-02-04T11:29:12.065Z,43.50
2024-02-04T11:31:42.011Z,43.40
2024-02-04T11:34:12.129Z,43.00
2024-02-04T11:36:42.546Z,42.50
2024-02-04T11:39:17.063Z,42.10
2024-02-04T11:41:49.273Z,42.30
2024-02-04T11:44:23.774Z,41.80
2024-02-04T11:46:53.399Z,42.50
2024-02-04T11:49:27.104Z,43.10
2024-02-04T11:51:57.026Z,43.80
2024-02-04T11:54:25.688Z,43.80
2024-02-04T11:56:55.365Z,43.80
2024-02-04T11:59:25.616Z,44.00
2024-02-04T12:01:56.651Z,44.20
2024-02-04T12:04:26.059Z,44.70
2024-02-04T12:06:57.136Z,44.60
2024-02-04T12:09:26.873Z,45.00
2024-02-04T12:11:56.476Z,45.30
2024-02-04T12:14:25.201Z,45.50
2024-02-04T12:16:53.566Z,45.80
2024-02-04T12:19:22.204Z,45.90
2024-02-04T12:21:50.864Z,46.00
2024-02-04T12:24:21.195Z,45.60
2024-02-04T12:26:49.733Z,45.50
2024-02-04T12:29:18.454Z,45.70
2024-02-04T12:31:47.592Z,45.90
2024-02-04T12:34:16.108Z,46.00
2024-02-04T12:36:47.716Z,46.30
2024-02-04T12:39:18.981Z,46.70
2024-02-04T12:41:53.694Z,47.10
2024-02-04T12:44:22.300Z,47.50
2024-02-04T12:46:54.180Z,48.00
2024-02-04T12:49:24.055Z,48.50
2024-02-04T12:51:54.042Z,48.80
2024-02-04T12:54:22.523Z,49.30
2024-02-04T12:56:53.769Z,49.60
2024-02-04T12:59:29.693Z,49.80
2024-02-04T13:01:59.815Z,50.00
2024-02-04T13:04:28.835Z,50.30
2024-02-04T13:06:57.292Z,50.50
2024-02-04T13:09:25.953Z,50.80
2024-02-04T13:12:06.209Z,50.90
2024-02-04T13:14:34.603Z,51.10
2024-02-04T13:17:03.064Z,51.30
2024-02-04T13:19:36.349Z,51.40
2024-02-04T13:22:05.579Z,51.60
2024-02-04T13:24:34.532Z,51.70
2024-02-04T13:27:06.869Z,51.90
2024-02-04T13:29:35.355Z,52.00
2024-02-04T13:32:04.037Z,52.10
2024-02-04T13:34:32.684Z,52.00
2024-02-04T13:37:01.231Z,52.10
2024-02-04T13:39:29.878Z,52.20
2024-02-04T13:41:58.273Z,52.30
2024-02-04T13:44:28.100Z,52.40
2024-02-04T13:46:56.587Z,52.50
2024-02-04T13:49:25.032Z,52.60
2024-02-04T13:51:53.641Z,52.70
2024-02-04T13:54:22.073Z,52.70
2024-02-04T13:56:51.079Z,52.90
2024-02-04T13:59:19.667Z,52.90
2024-02-04T14:01:51.363Z,52.90
2024-02-04T14:04:19.982Z,53.00
2024-02-04T14:06:48.571Z,53.20
2024-02-04T14:09:17.593Z,53.30
2024-02-04T14:11:46.074Z,53.40
2024-02-04T14:14:14.547Z,53.50
2024-02-04T14:16:42.933Z,53.60
2024-02-04T14:19:14.634Z,54.00
2024-02-04T14:21:43.919Z,53.90
2024-02-04T14:24:12.326Z,54.10
2024-02-04T14:26:42.028Z,54.20
2024-02-04T14:29:10.691Z,54.40
2024-02-04T14:31:39.140Z,54.50
2024-02-04T14:34:07.892Z,54.60
2024-02-04T14:36:37.712Z,54.80
2024-02-04T14:39:07.158Z,55.00
2024-02-04T14:41:37.700Z,55.10
2024-02-04T14:44:06.378Z,55.20
2024-02-04T14:46:37.971Z,55.50
2024-02-04T14:49:06.774Z,56.00
2024-02-04T14:51:37.204Z,55.60
2024-02-04T14:54:09.512Z,55.80
2024-02-04T14:56:40.868Z,55.90
2024-02-04T14:59:20.998Z,56.00
2024-02-04T15:01:52.203Z,56.10
2024-02-04T15:04:21.484Z,56.20
2024-02-04T15:06:50.300Z,56.50
2024-02-04T15:09:21.404Z,56.50
2024-02-04T15:11:50.236Z,56.60
2024-02-04T15:14:19.100Z,56.60
2024-02-04T15:16:47.987Z,56.70
2024-02-04T15:19:18.036Z,56.90
2024-02-04T15:21:46.995Z,57.10
2024-02-04T15:24:16.237Z,57.00
2024-02-04T15:26:48.562Z,57.20
2024-02-04T15:29:18.500Z,57.30
2024-02-04T15:31:50.501Z,57.30
2024-02-04T15:34:19.655Z,57.50
2024-02-04T15:36:48.945Z,57.60
2024-02-04T15:39:18.612Z,57.70
2024-02-04T15:41:48.969Z,57.80
2024-02-04T15:44:19.138Z,57.70
2024-02-04T15:46:49.626Z,57.90
2024-02-04T15:49:20.239Z,58.00
2024-02-04T15:51:49.491Z,58.10
2024-02-04T15:54:19.007Z,58.10
2024-02-04T15:56:57.567Z,58.20
2024-02-04T15:59:30.726Z,58.30
2024-02-04T16:01:59.771Z,58.50
2024-02-04T16:04:28.738Z,58.30
2024-02-04T16:06:57.664Z,58.50
2024-02-04T16:09:26.341Z,58.50
2024-02-04T16:12:05.549Z,58.50
2024-02-04T16:14:38.211Z,58.60
2024-02-04T16:17:07.339Z,58.50
2024-02-04T16:19:36.467Z,58.70
2024-02-04T16:22:05.077Z,58.80
2024-02-04T16:24:35.232Z,58.90
2024-02-04T16:27:06.350Z,59.10
2024-02-04T16:29:34.845Z,59.00
2024-02-04T16:32:03.331Z,59.00
2024-02-04T16:34:35.908Z,59.10
2024-02-04T16:37:06.494Z,59.30
2024-02-04T16:39:35.046Z,59.20
2024-02-04T16:42:04.164Z,59.20
2024-02-04T16:44:33.912Z,59.30
2024-02-04T16:47:02.361Z,59.30
2024-02-04T16:49:32.070Z,59.40
2024-02-04T16:52:00.982Z,59.40
2024-02-04T16:54:30.906Z,59.50
2024-02-04T16:57:00.249Z,59.60
2024-02-04T16:59:28.750Z,59.70
2024-02-04T17:01:58.504Z,59.70
2024-02-04T17:04:27.561Z,59.80
2024-02-04T17:06:56.402Z,59.80
2024-02-04T17:09:25.214Z,59.80
2024-02-04T17:11:55.891Z,59.70
2024-02-04T17:14:26.221Z,59.90
2024-02-04T17:17:05.644Z,59.90
2024-02-04T17:19:45.170Z,60.00
2024-02-04T17:22:16.627Z,60.10
2024-02-04T17:24:49.749Z,60.10
2024-02-04T17:27:19.336Z,60.10
2024-02-04T17:29:51.484Z,60.20
2024-02-04T17:32:26.631Z,60.30
2024-02-04T17:34:56.378Z,60.40
2024-02-04T17:37:24.914Z,60.40
2024-02-04T17:39:54.158Z,60.50
2024-02-04T17:42:24.088Z,60.70
2024-02-04T17:44:52.752Z,60.80
2024-02-04T17:47:25.887Z,60.90
2024-02-04T17:49:56.319Z,61.00
2024-02-04T17:52:26.509Z,61.00
2024-02-04T17:54:56.075Z,61.00
2024-02-04T17:57:24.823Z,61.20
2024-02-04T17:59:54.164Z,61.20
2024-02-04T18:02:37.649Z,62.30
2024-02-04T18:05:14.988Z,61.30
2024-02-04T18:07:44.023Z,61.40
2024-02-04T18:10:13.043Z,61.40
2024-02-04T18:12:41.711Z,62.40
2024-02-04T18:15:10.725Z,61.50
2024-02-04T18:17:43.904Z,61.60
2024-02-04T18:20:14.030Z,62.80
2024-02-04T18:22:42.515Z,61.80
2024-02-04T18:25:13.471Z,62.80
2024-02-04T18:27:44.088Z,62.90
2024-02-04T18:30:17.881Z,62.90
2024-02-04T18:32:47.720Z,62.00
2024-02-04T18:35:17.650Z,63.20
2024-02-04T18:37:46.080Z,63.40
2024-02-04T18:40:14.969Z,63.50
2024-02-04T18:42:43.503Z,63.70
2024-02-04T18:45:12.413Z,63.80
2024-02-04T18:47:40.934Z,64.10
2024-02-04T18:50:11.384Z,64.30
2024-02-04T18:52:39.945Z,64.30
2024-02-04T18:55:10.970Z,64.60
2024-02-04T18:57:41.298Z,64.70
2024-02-04T19:00:10.941Z,64.90
2024-02-04T19:02:39.386Z,65.10
2024-02-04T19:05:09.636Z,65.50
2024-02-04T19:07:39.572Z,65.60
2024-02-04T19:10:10.303Z,65.70
2024-02-04T19:12:40.509Z,65.80
2024-02-04T19:15:10.221Z,66.00
2024-02-04T19:17:41.467Z,66.20
2024-02-04T19:20:12.931Z,66.20
2024-02-04T19:22:45.599Z,66.30
2024-02-04T19:25:17.607Z,66.60
2024-02-04T19:27:50.885Z,66.60
2024-02-04T19:30:20.019Z,66.70
2024-02-04T19:32:51.630Z,66.80
2024-02-04T19:35:21.802Z,66.90
2024-02-04T19:37:52.541Z,66.90
2024-02-04T19:40:22.499Z,66.90
2024-02-04T19:42:51.701Z,66.80
2024-02-04T19:45:21.578Z,66.90
2024-02-04T19:47:50.574Z,66.90
2024-02-04T19:50:20.240Z,67.00
2024-02-04T19:52:49.482Z,67.10
2024-02-04T19:55:19.344Z,67.20
2024-02-04T19:57:47.989Z,67.30
2024-02-04T20:00:17.150Z,67.40
2024-02-04T20:02:47.272Z,67.50
2024-02-04T20:05:18.706Z,67.60
2024-02-04T20:07:47.917Z,67.60
2024-02-04T20:10:16.575Z,67.60
2024-02-04T20:12:49.637Z,67.80
2024-02-04T20:15:19.934Z,67.80
2024-02-04T20:17:48.333Z,67.90
2024-02-04T20:20:16.911Z,67.90
2024-02-04T20:22:45.425Z,68.00
2024-02-04T20:25:14.220Z,68.00
2024-02-04T20:27:42.715Z,68.00
2024-02-04T20:30:15.301Z,68.10
2024-02-04T20:32:43.887Z,68.20
2024-02-04T20:35:12.453Z,68.20
2024-02-04T20:37:41.087Z,68.40
2024-02-04T20:40:11.013Z,68.40
2024-02-04T20:42:40.731Z,68.40
2024-02-04T20:45:10.934Z,68.30
2024-02-04T20:47:42.561Z,68.30
2024-02-04T20:50:12.055Z,68.20
2024-02-04T20:52:40.453Z,68.20
2024-02-04T20:55:09.681Z,68.10
2024-02-04T20:57:38.676Z,68.10
2024-02-04T21:00:09.072Z,66.90
2024-02-04T21:02:38.032Z,66.90
2024-02-04T21:05:08.231Z,66.80
2024-02-04T21:07:36.799Z,66.70
2024-02-04T21:10:06.702Z,66.80
2024-02-04T21:12:35.481Z,66.60
2024-02-04T21:15:07.956Z,66.50
2024-02-04T21:17:39.248Z,66.40
2024-02-04T21:20:11.142Z,66.40
2024-02-04T21:22:39.547Z,66.30
2024-02-04T21:25:08.598Z,66.20
2024-02-04T21:27:37.258Z,66.20
2024-02-04T21:30:08.358Z,66.20
2024-02-04T21:32:37.010Z,66.10
2024-02-04T21:35:09.806Z,66.20
2024-02-04T21:37:41.080Z,66.40
2024-02-04T21:40:10.854Z,66.40
2024-02-04T21:42:39.999Z,66.40
2024-02-04T21:45:09.167Z,66.30
2024-02-04T21:47:37.809Z,66.40
2024-02-04T21:50:07.611Z,66.50
2024-02-04T21:52:36.017Z,66.40
2024-02-04T21:55:06.152Z,66.40
2024-02-04T21:57:34.593Z,66.50
2024-02-04T22:00:03.797Z,66.50
2024-02-04T22:02:33.697Z,66.50
2024-02-04T22:05:02.145Z,66.70
2024-02-04T22:07:30.900Z,66.80
2024-02-04T22:09:59.398Z,66.80
2024-02-04T22:12:29.182Z,67.90
2024-02-04T22:15:01.799Z,67.00
2024-02-04T22:17:31.265Z,67.10
2024-02-04T22:19:59.681Z,67.30
2024-02-04T22:22:29.648Z,67.30
2024-02-04T22:24:58.145Z,67.30
2024-02-04T22:27:28.020Z,67.30
2024-02-04T22:29:56.485Z,67.30
2024-02-04T22:32:26.760Z,67.40
2024-02-04T22:34:55.402Z,67.40
2024-02-04T22:37:23.905Z,67.50
2024-02-04T22:39:52.357Z,67.50
2024-02-04T22:42:21.794Z,67.60
2024-02-04T22:44:51.542Z,67.60
2024-02-04T22:47:20.376Z,67.70
2024-02-04T22:49:48.867Z,67.80
2024-02-04T22:52:17.414Z,67.80
2024-02-04T22:54:45.965Z,67.80
2024-02-04T22:57:14.341Z,67.80
2024-02-04T22:59:42.777Z,67.90
2024-02-04T23:02:12.568Z,68.00
2024-02-04T23:04:42.536Z,68.00
2024-02-04T23:07:13.203Z,68.00
2024-02-04T23:09:42.106Z,68.10
2024-02-04T23:12:11.114Z,68.30
2024-02-04T23:14:40.024Z,68.20
2024-02-04T23:17:08.530Z,68.20
2024-02-04T23:19:38.321Z,68.30
2024-02-04T23:22:06.913Z,68.30
2024-02-04T23:24:37.607Z,68.40
2024-02-04T23:27:06.508Z,68.40
2024-02-04T23:29:35.009Z,68.40
2024-02-04T23:32:03.407Z,68.40
2024-02-04T23:34:31.969Z,68.50
2024-02-04T23:37:01.838Z,68.50
2024-02-04T23:39:30.617Z,68.60
2024-02-04T23:41:58.925Z,68.60
2024-02-04T23:44:27.533Z,68.70
2024-02-04T23:46:55.933Z,68.70
2024-02-04T23:49:24.556Z,68.80
2024-02-04T23:51:53.285Z,68.90
2024-02-04T23:54:23.069Z,69.00
2024-02-04T23:56:51.470Z,69.00
2024-02-04T23:59:19.921Z,69.10
